Time;durP1;ratioP1;P1;durP2;ratioP2;P2;SDS_P1;SDS_P2;PMS_P1;PMS_P2;Temp;Humidity;BMP_temperature;BMP_pressure;BME280_temperature;BME280_humidity;BME280_pressure;Samples;Min_cycle;Max_cycle;Signal;HPM_P1;HPM_P2
2024/01/04 00:00:23;;;;;;;6.60;1.30;;;8.70;80.20;;;;;;4936607;28;20469;-70
2024/01/04 00:02:49;;;;;;;4.50;1.17;;;8.60;81.40;;;;;;4947428;28;20180;-71
2024/01/04 00:05:15;;;;;;;4.23;1.20;;;8.50;81.90;;;;;;4945244;28;20548;-69
2024/01/04 00:07:41;;;;;;;2.53;0.90;;;8.40;82.40;;;;;;4946927;28;20465;-68
2024/01/04 00:10:07;;;;;;;3.67;1.33;;;8.40;82.80;;;;;;4938062;28;20219;-67
2024/01/04 00:12:33;;;;;;;2.60;1.33;;;8.30;82.50;;;;;;4944948;28;20199;-70
2024/01/04 00:14:59;;;;;;;4.27;1.77;;;8.30;82.80;;;;;;4942993;28;20424;-71
2024/01/04 00:17:25;;;;;;;3.23;1.20;;;8.30;83.00;;;;;;4947754;28;20180;-70
2024/01/04 00:19:51;;;;;;;6.13;1.47;;;8.30;83.10;;;;;;4957910;28;20501;-69
2024/01/04 00:22:16;;;;;;;2.33;1.17;;;8.30;83.10;;;;;;4946823;28;20491;-72
2024/01/04 00:24:43;;;;;;;4.53;1.40;;;8.30;83.00;;;;;;4948259;28;20184;-70
2024/01/04 00:27:08;;;;;;;3.30;2.17;;;8.30;83.10;;;;;;4949289;28;20188;-71
2024/01/04 00:29:34;;;;;;;3.40;1.13;;;8.30;83.30;;;;;;4948680;28;20509;-69
2024/01/04 00:32:00;;;;;;;3.60;1.10;;;8.40;83.10;;;;;;4946233;28;20657;-69
2024/01/04 00:34:25;;;;;;;5.80;1.57;;;8.40;83.30;;;;;;4949346;28;20273;-70
2024/01/04 00:36:51;;;;;;;3.70;1.30;;;8.30;83.70;;;;;;4948036;28;20203;-70
2024/01/04 00:39:17;;;;;;;5.70;1.00;;;8.20;83.70;;;;;;4949625;28;20188;-72
2024/01/04 00:41:44;;;;;;;5.30;1.50;;;8.20;84.00;;;;;;4943984;28;20704;-71
2024/01/04 00:44:10;;;;;;;3.33;1.37;;;8.10;84.30;;;;;;4947101;28;20424;-71
2024/01/04 00:46:36;;;;;;;6.70;1.47;;;8.10;83.60;;;;;;4947822;28;20478;-69
2024/01/04 00:49:01;;;;;;;7.07;1.60;;;8.10;84.10;;;;;;4947834;28;20196;-69
2024/01/04 00:51:27;;;;;;;3.23;1.20;;;8.00;84.60;;;;;;4942036;28;20858;-70
2024/01/04 00:53:52;;;;;;;4.30;1.17;;;8.00;84.90;;;;;;4945545;28;20196;-71
2024/01/04 00:56:18;;;;;;;2.20;1.07;;;8.00;84.90;;;;;;4951800;28;20236;-70
2024/01/04 00:58:45;;;;;;;9.80;1.40;;;8.00;84.90;;;;;;4953731;28;20668;-70
2024/01/04 01:01:10;;;;;;;4.97;1.47;;;8.00;85.50;;;;;;4944585;28;21350;-70
2024/01/04 01:03:36;;;;;;;2.13;0.90;;;8.00;85.50;;;;;;4945930;28;20425;-69
2024/01/04 01:06:02;;;;;;;4.30;1.30;;;8.00;85.30;;;;;;4949742;28;20777;-69
2024/01/04 01:08:28;;;;;;;7.60;1.60;;;7.90;85.30;;;;;;4945433;28;20275;-69
2024/01/04 01:10:53;;;;;;;5.90;1.30;;;7.90;85.50;;;;;;4940496;28;20562;-71
2024/01/04 01:13:22;;;;;;;7.53;1.20;;;7.80;86.20;;;;;;4944960;28;20676;-70
2024/01/04 01:15:47;;;;;;;4.00;1.33;;;7.80;86.50;;;;;;4948596;28;20322;-70
2024/01/04 01:18:13;;;;;;;12.13;1.60;;;7.70;86.50;;;;;;4944869;28;20927;-71
2024/01/04 01:20:39;;;;;;;5.33;1.10;;;7.70;86.60;;;;;;4947282;28;20261;-71
2024/01/04 01:23:05;;;;;;;6.87;1.50;;;7.70;87.00;;;;;;4944447;28;20263;-70
2024/01/04 01:25:30;;;;;;;8.30;1.70;;;7.60;87.10;;;;;;4947285;28;20526;-70
2024/01/04 01:27:56;;;;;;;3.63;1.30;;;7.70;87.30;;;;;;4950814;28;20184;-71
2024/01/04 01:30:21;;;;;;;3.33;1.00;;;7.70;87.40;;;;;;4941199;28;20204;-70
2024/01/04 01:32:47;;;;;;;6.00;0.97;;;7.70;87.30;;;;;;4946623;28;20598;-73
2024/01/04 01:35:14;;;;;;;6.40;1.33;;;7.60;87.30;;;;;;4950502;28;20184;-73
2024/01/04 01:37:39;;;;;;;4.37;1.20;;;7.60;87.40;;;;;;4944084;28;20188;-70
2024/01/04 01:40:06;;;;;;;3.30;0.93;;;7.70;87.30;;;;;;4940399;28;20479;-69
2024/01/04 01:42:32;;;;;;;3.43;1.23;;;7.60;87.10;;;;;;4944186;28;20295;-70
2024/01/04 01:44:59;;;;;;;2.07;0.97;;;7.70;87.00;;;;;;4951398;28;20591;-72
2024/01/04 01:47:26;;;;;;;1.73;0.90;;;7.70;86.50;;;;;;4948525;28;20195;-74
2024/01/04 01:49:52;;;;;;;3.63;1.47;;;7.70;86.60;;;;;;4944031;28;20464;-70
2024/01/04 01:52:18;;;;;;;1.93;1.10;;;7.70;86.50;;;;;;4945921;28;20497;-71
2024/01/04 01:54:46;;;;;;;4.63;1.00;;;7.70;86.30;;;;;;4944913;28;20809;-71
2024/01/04 01:57:12;;;;;;;5.80;1.13;;;7.70;86.30;;;;;;4949679;28;20443;-70
2024/01/04 01:59:37;;;;;;;3.03;1.00;;;7.70;86.50;;;;;;4941925;28;20440;-70
2024/01/04 02:02:03;;;;;;;2.40;0.97;;;7.70;86.60;;;;;;4941738;28;20192;-69
2024/01/04 02:04:29;;;;;;;1.70;0.67;;;7.60;86.60;;;;;;4938075;28;20221;-69
2024/01/04 02:06:56;;;;;;;0.83;0.57;;;7.40;86.20;;;;;;4944852;28;20483;-71
2024/01/04 02:09:22;;;;;;;1.63;0.70;;;7.30;85.90;;;;;;4947158;28;20381;-68
2024/01/04 02:11:47;;;;;;;2.03;0.73;;;7.20;87.10;;;;;;4943039;28;21030;-70
2024/01/04 02:14:13;;;;;;;1.77;0.90;;;7.20;87.00;;;;;;4945908;28;20180;-70
2024/01/04 02:16:38;;;;;;;2.07;0.67;;;7.20;86.90;;;;;;4952680;28;20194;-70
2024/01/04 02:19:08;;;;;;;4.20;1.00;;;7.20;86.90;;;;;;4945670;28;20270;-70
2024/01/04 02:21:38;;;;;;;2.20;0.97;;;7.20;86.80;;;;;;4940953;28;20204;-70
2024/01/04 02:24:05;;;;;;;1.23;0.50;;;7.20;86.50;;;;;;4945311;28;20458;-71
2024/01/04 02:26:30;;;;;;;6.10;0.90;;;7.20;86.20;;;;;;4950280;28;20489;-70
2024/01/04 02:28:56;;;;;;;1.43;0.60;;;7.30;86.00;;;;;;4939618;28;21059;-71
2024/01/04 02:31:21;;;;;;;2.00;0.60;;;7.30;85.60;;;;;;4944624;28;20204;-72
2024/01/04 02:33:47;;;;;;;1.50;0.50;;;7.30;85.50;;;;;;4954144;28;20199;-71
2024/01/04 02:36:12;;;;;;;0.60;0.40;;;7.30;85.70;;;;;;4949464;28;20195;-71
2024/01/04 02:38:38;;;;;;;0.80;0.50;;;7.30;86.00;;;;;;4949472;28;20214;-71
2024/01/04 02:41:04;;;;;;;0.60;0.40;;;7.30;85.50;;;;;;4947238;28;20199;-70
2024/01/04 02:43:29;;;;;;;0.60;0.40;;;7.20;85.60;;;;;;4956921;28;20234;-71
2024/01/04 02:45:55;;;;;;;1.23;0.43;;;7.20;85.90;;;;;;4948486;28;20571;-71
2024/01/04 02:48:21;;;;;;;2.00;0.50;;;7.20;85.70;;;;;;4947824;28;20231;-70
2024/01/04 02:50:47;;;;;;;0.60;0.50;;;7.20;85.30;;;;;;4947560;28;20200;-72
2024/01/04 02:53:12;;;;;;;0.70;0.50;;;7.20;85.20;;;;;;4956158;28;20527;-69
2024/01/04 02:55:40;;;;;;;0.80;0.50;;;7.20;85.20;;;;;;4949025;28;20196;-71
2024/01/04 02:58:06;;;;;;;1.57;0.50;;;7.20;85.20;;;;;;4949459;28;20248;-72
2024/01/04 03:00:31;;;;;;;0.97;0.60;;;7.20;85.20;;;;;;4949856;28;20478;-71
2024/01/04 03:02:57;;;;;;;0.80;0.50;;;7.20;84.60;;;;;;4958028;28;20291;-72
2024/01/04 03:05:22;;;;;;;1.53;0.70;;;7.20;84.30;;;;;;4948182;28;20226;-71
2024/01/04 03:07:48;;;;;;;0.80;0.50;;;7.30;84.10;;;;;;4946586;28;20203;-70
2024/01/04 03:10:14;;;;;;;0.97;0.50;;;7.30;83.80;;;;;;4940585;28;20251;-72
2024/01/04 03:12:39;;;;;;;0.90;0.57;;;7.30;84.00;;;;;;4938136;28;20435;-70
2024/01/04 03:15:07;;;;;;;1.57;0.60;;;7.30;83.60;;;;;;4941278;28;20198;-71
2024/01/04 03:17:32;;;;;;;0.70;0.53;;;7.30;84.00;;;;;;4940653;28;20228;-71
2024/01/04 03:19:58;;;;;;;1.17;0.60;;;7.40;83.70;;;;;;4935792;29;20502;-70
2024/01/04 03:22:24;;;;;;;2.80;0.60;;;7.40;83.60;;;;;;4947685;28;20267;-72
2024/01/04 03:24:49;;;;;;;0.60;0.40;;;7.30;84.00;;;;;;4947664;28;20242;-70
2024/01/04 03:27:15;;;;;;;1.27;0.60;;;7.30;84.00;;;;;;4944152;28;20270;-70
2024/01/04 03:29:41;;;;;;;4.10;0.70;;;7.30;84.00;;;;;;4938666;28;20458;-68
2024/01/04 03:32:06;;;;;;;0.63;0.50;;;7.20;84.40;;;;;;4945501;28;20680;-71
2024/01/04 03:34:33;;;;;;;0.60;0.43;;;7.10;85.20;;;;;;4938576;28;20216;-69
2024/01/04 03:36:58;;;;;;;1.63;0.40;;;7.00;85.50;;;;;;4944913;28;20257;-70
2024/01/04 03:39:24;;;;;;;1.40;0.50;;;7.00;85.70;;;;;;4940491;28;20424;-71
2024/01/04 03:41:50;;;;;;;6.20;0.50;;;7.00;86.00;;;;;;4948459;28;20212;-72
2024/01/04 03:44:15;;;;;;;0.70;0.50;;;7.00;85.90;;;;;;4955428;28;20218;-70
2024/01/04 03:46:41;;;;;;;1.20;0.53;;;7.00;86.00;;;;;;4949766;28;20302;-69
2024/01/04 03:49:06;;;;;;;2.83;0.60;;;7.10;86.00;;;;;;4950368;28;20329;-70
2024/01/04 03:51:32;;;;;;;1.43;0.50;;;7.10;86.00;;;;;;4948749;28;20211;-70
2024/01/04 03:53:58;;;;;;;0.60;0.50;;;7.10;86.00;;;;;;4957003;28;20283;-70
2024/01/04 03:56:24;;;;;;;1.17;0.50;;;7.10;86.30;;;;;;4947671;28;20184;-70
2024/01/04 03:58:49;;;;;;;0.60;0.40;;;7.10;86.60;;;;;;4947987;28;20423;-71
2024/01/04 04:01:15;;;;;;;1.67;0.70;;;7.10;86.50;;;;;;4945908;28;20212;-70
2024/01/04 04:03:41;;;;;;;1.57;0.50;;;7.10;86.50;;;;;;4951595;28;20254;-70
2024/01/04 04:06:07;;;;;;;3.07;0.70;;;7.20;86.50;;;;;;4946827;28;20307;-71
2024/01/04 04:08:33;;;;;;;3.50;0.90;;;7.30;85.90;;;;;;4945870;28;20246;-71
2024/01/04 04:10:59;;;;;;;4.50;0.90;;;7.30;85.70;;;;;;4948168;28;20490;-71
2024/01/04 04:13:25;;;;;;;1.87;0.80;;;7.40;85.60;;;;;;4951271;28;20559;-70
2024/01/04 04:15:51;;;;;;;1.90;0.70;;;7.50;85.60;;;;;;4944344;28;20196;-72
2024/01/04 04:18:16;;;;;;;2.20;0.87;;;7.60;85.30;;;;;;4967113;28;20422;-70
2024/01/04 04:20:42;;;;;;;2.27;0.80;;;7.60;85.30;;;;;;4939120;28;20212;-71
2024/01/04 04:23:07;;;;;;;2.13;0.63;;;7.70;85.20;;;;;;4959114;28;20238;-70
2024/01/04 04:25:36;;;;;;;1.53;0.80;;;7.70;84.90;;;;;;4951523;28;20212;-70
2024/01/04 04:28:02;;;;;;;1.20;0.80;;;7.80;84.60;;;;;;4941807;28;20207;-72
2024/01/04 04:30:29;;;;;;;1.00;0.60;;;7.90;84.70;;;;;;4944079;28;21110;-70
2024/01/04 04:32:55;;;;;;;1.53;0.70;;;7.90;84.30;;;;;;4944137;28;20529;-69
2024/01/04 04:35:21;;;;;;;1.23;0.67;;;8.00;84.10;;;;;;4951375;28;20948;-70
2024/01/04 04:37:46;;;;;;;2.70;0.80;;;8.00;84.10;;;;;;4951720;28;20206;-70
2024/01/04 04:40:12;;;;;;;1.50;0.80;;;8.00;83.80;;;;;;4940063;28;20299;-73
2024/01/04 04:42:38;;;;;;;9.13;0.90;;;8.10;83.40;;;;;;4960799;28;20210;-69
2024/01/04 04:45:04;;;;;;;2.50;0.90;;;8.20;83.30;;;;;;4950391;28;20219;-71
2024/01/04 04:47:30;;;;;;;3.53;0.80;;;8.20;83.00;;;;;;4948770;28;20194;-71
2024/01/04 04:49:56;;;;;;;2.23;0.80;;;8.30;82.70;;;;;;4944848;28;20562;-69
2024/01/04 04:52:21;;;;;;;2.30;1.00;;;8.30;82.80;;;;;;4949679;28;20220;-71
2024/01/04 04:54:47;;;;;;;2.60;1.07;;;8.30;83.60;;;;;;4950170;28;20420;-72
2024/01/04 04:57:12;;;;;;;7.43;0.87;;;8.20;83.80;;;;;;4947854;28;20184;-71
2024/01/04 04:59:38;;;;;;;1.63;0.80;;;8.20;83.80;;;;;;4949105;28;20278;-70
2024/01/04 05:02:04;;;;;;;4.10;1.20;;;8.10;84.30;;;;;;4943557;28;20188;-70
2024/01/04 05:04:29;;;;;;;2.37;1.20;;;8.10;84.60;;;;;;4950372;28;20180;-70
2024/01/04 05:06:55;;;;;;;9.13;1.10;;;8.10;84.60;;;;;;4951017;28;20216;-72
2024/01/04 05:09:21;;;;;;;9.63;1.63;;;8.10;84.70;;;;;;4948447;28;20184;-70
2024/01/04 05:11:46;;;;;;;8.27;0.90;;;8.00;85.00;;;;;;4940655;28;20205;-70
2024/01/04 05:14:12;;;;;;;6.70;1.27;;;8.00;85.20;;;;;;4947811;28;20190;-71
2024/01/04 05:16:38;;;;;;;3.20;1.27;;;7.90;85.50;;;;;;4950613;28;20184;-70
2024/01/04 05:19:07;;;;;;;4.10;0.77;;;7.90;85.70;;;;;;4950867;28;20227;-72
2024/01/04 05:21:33;;;;;;;5.33;1.10;;;7.90;86.00;;;;;;4947821;28;20520;-72
2024/01/04 05:23:59;;;;;;;1.10;0.60;;;7.80;86.30;;;;;;4950175;28;20843;-71
2024/01/04 05:26:25;;;;;;;6.17;1.00;;;7.80;86.00;;;;;;4951138;28;20477;-70
2024/01/04 05:28:50;;;;;;;1.87;1.00;;;7.90;85.90;;;;;;4950888;28;20554;-70
2024/01/04 05:31:19;;;;;;;3.27;1.00;;;7.80;86.20;;;;;;4947865;28;20249;-70
2024/01/04 05:33:47;;;;;;;2.03;0.87;;;7.80;86.00;;;;;;4949506;28;20188;-70
2024/01/04 05:36:13;;;;;;;1.53;0.70;;;7.80;86.30;;;;;;4950600;28;20985;-70
2024/01/04 05:38:39;;;;;;;1.60;0.80;;;7.80;85.90;;;;;;4950577;28;20436;-71
2024/01/04 05:41:04;;;;;;;2.43;1.23;;;7.90;85.20;;;;;;4945725;28;20233;-70
2024/01/04 05:43:31;;;;;;;4.53;1.00;;;7.90;84.30;;;;;;4947741;28;20531;-69
2024/01/04 05:45:56;;;;;;;4.70;0.80;;;8.00;84.40;;;;;;4949013;28;20566;-71
2024/01/04 05:48:22;;;;;;;1.93;0.83;;;8.00;84.00;;;;;;4955963;28;20577;-71
2024/01/04 05:50:49;;;;;;;1.37;0.83;;;8.10;83.70;;;;;;4947848;28;20250;-71
2024/01/04 05:53:15;;;;;;;2.00;0.70;;;8.10;83.80;;;;;;4947500;28;20198;-71
2024/01/04 05:55:40;;;;;;;2.50;1.27;;;8.10;83.30;;;;;;4947366;28;20435;-71
2024/01/04 05:58:06;;;;;;;1.63;0.80;;;8.10;83.40;;;;;;4944249;28;20190;-69
2024/01/04 06:00:31;;;;;;;1.43;0.87;;;8.10;83.60;;;;;;4941052;28;20564;-70
2024/01/04 06:02:57;;;;;;;2.30;0.93;;;8.10;83.40;;;;;;4943396;28;20187;-71
2024/01/04 06:05:23;;;;;;;3.00;0.80;;;8.00;83.60;;;;;;4950679;28;20242;-70
2024/01/04 06:07:49;;;;;;;4.00;0.77;;;8.10;83.40;;;;;;4950105;28;20192;-71
2024/01/04 06:10:14;;;;;;;1.97;0.80;;;8.10;83.10;;;;;;4945676;28;20947;-70
2024/01/04 06:12:41;;;;;;;3.63;0.80;;;8.10;83.00;;;;;;4950138;28;20180;-70
2024/01/04 06:15:07;;;;;;;0.90;0.70;;;8.10;83.10;;;;;;4944893;28;20195;-70
2024/01/04 06:17:33;;;;;;;3.40;0.80;;;8.20;82.20;;;;;;4947422;28;20437;-69
2024/01/04 06:19:58;;;;;;;3.03;0.90;;;8.20;82.40;;;;;;4971467;28;20478;-70
2024/01/04 06:22:24;;;;;;;2.13;0.83;;;8.20;82.40;;;;;;4948279;28;20184;-71
2024/01/04 06:24:49;;;;;;;2.30;0.90;;;8.30;82.40;;;;;;4949014;28;20180;-70
2024/01/04 06:27:15;;;;;;;2.00;0.60;;;8.30;82.10;;;;;;4949036;28;20263;-70
2024/01/04 06:29:40;;;;;;;3.37;0.90;;;8.30;81.70;;;;;;4947538;28;20497;-69
2024/01/04 06:32:08;;;;;;;1.03;0.70;;;8.30;81.50;;;;;;4947398;28;20249;-70
2024/01/04 06:34:33;;;;;;;5.43;0.90;;;8.30;81.20;;;;;;4947575;28;20176;-70
2024/01/04 06:36:59;;;;;;;5.73;1.17;;;8.40;81.40;;;;;;4946732;28;20450;-69
2024/01/04 06:39:24;;;;;;;3.13;0.80;;;8.40;81.40;;;;;;4947895;28;20176;-71
2024/01/04 06:41:50;;;;;;;2.47;1.10;;;8.40;81.50;;;;;;4944079;28;20215;-71
2024/01/04 06:44:16;;;;;;;2.97;1.20;;;8.30;81.70;;;;;;4948731;28;20180;-71
2024/01/04 06:46:41;;;;;;;4.20;0.97;;;8.30;81.90;;;;;;4949800;28;20247;-70
2024/01/04 06:49:07;;;;;;;2.00;0.80;;;8.20;81.90;;;;;;4949680;28;20199;-69
2024/01/04 06:51:32;;;;;;;4.27;1.10;;;8.30;81.70;;;;;;4941298;28;20196;-70
2024/01/04 06:53:58;;;;;;;2.57;1.20;;;8.30;81.40;;;;;;4943661;28;20677;-70
2024/01/04 06:56:23;;;;;;;2.20;1.40;;;8.30;80.90;;;;;;4948200;28;20184;-70
2024/01/04 06:58:49;;;;;;;2.90;0.90;;;8.40;80.60;;;;;;4947162;28;20222;-70
2024/01/04 07:01:14;;;;;;;2.00;0.90;;;8.40;80.50;;;;;;4941979;28;20711;-70
2024/01/04 07:03:40;;;;;;;1.30;0.80;;;8.40;80.80;;;;;;4948834;28;20263;-70
2024/01/04 07:06:06;;;;;;;2.40;1.07;;;8.40;79.70;;;;;;4942959;28;20216;-70
2024/01/04 07:08:31;;;;;;;1.83;0.80;;;8.50;80.20;;;;;;4948654;28;20787;-71
2024/01/04 07:10:57;;;;;;;2.60;0.90;;;8.40;80.30;;;;;;4942331;28;20207;-70
2024/01/04 07:13:22;;;;;;;2.60;0.93;;;8.40;80.50;;;;;;4946707;28;20188;-70
2024/01/04 07:15:49;;;;;;;2.63;0.73;;;8.40;80.60;;;;;;4948815;28;20181;-70
2024/01/04 07:18:15;;;;;;;0.80;0.70;;;8.30;80.80;;;;;;4946221;28;20813;-70
2024/01/04 07:20:41;;;;;;;3.80;0.87;;;8.30;80.80;;;;;;4942791;28;20470;-68
2024/01/04 07:23:08;;;;;;;3.53;1.43;;;8.30;81.10;;;;;;4949068;28;20195;-70
2024/01/04 07:25:34;;;;;;;2.80;1.03;;;8.20;81.40;;;;;;4944837;28;20468;-70
2024/01/04 07:28:00;;;;;;;2.30;1.00;;;8.20;81.40;;;;;;4945288;28;21020;-69
2024/01/04 07:30:25;;;;;;;1.80;0.73;;;8.10;81.20;;;;;;4941772;28;21273;-69
2024/01/04 07:32:51;;;;;;;5.70;0.80;;;8.10;81.70;;;;;;4945942;28;20439;-72
2024/01/04 07:35:19;;;;;;;1.50;1.00;;;8.00;81.80;;;;;;4951137;28;20529;-73
2024/01/04 07:37:44;;;;;;;2.70;1.00;;;8.00;82.10;;;;;;4952271;28;20268;-72
2024/01/04 07:40:11;;;;;;;17.87;2.50;;;8.00;82.40;;;;;;4943914;28;20548;-72
2024/01/04 07:42:37;;;;;;;2.10;1.10;;;7.90;82.80;;;;;;4945308;28;20176;-71
2024/01/04 07:45:03;;;;;;;3.53;0.80;;;7.80;83.10;;;;;;4948822;28;20432;-71
2024/01/04 07:47:28;;;;;;;2.83;0.70;;;7.80;83.40;;;;;;4972413;28;20199;-71
2024/01/04 07:49:54;;;;;;;3.73;1.07;;;7.70;83.60;;;;;;4943197;28;20483;-70
2024/01/04 07:52:19;;;;;;;3.07;0.80;;;7.70;84.00;;;;;;4954296;28;20221;-73
2024/01/04 07:54:45;;;;;;;7.00;1.10;;;7.60;83.60;;;;;;4943119;28;20322;-72
2024/01/04 07:57:12;;;;;;;3.27;0.80;;;7.70;83.10;;;;;;4950405;28;20233;-71
2024/01/04 07:59:38;;;;;;;2.00;0.80;;;7.70;83.10;;;;;;4951734;28;20246;-71
2024/01/04 08:02:03;;;;;;;1.73;0.80;;;7.70;82.70;;;;;;4948772;28;20451;-71
2024/01/04 08:04:29;;;;;;;1.93;0.77;;;7.70;82.70;;;;;;4948850;28;20180;-72
2024/01/04 08:06:55;;;;;;;4.40;1.20;;;7.70;82.10;;;;;;4949930;28;20223;-73
2024/01/04 08:09:21;;;;;;;4.30;1.30;;;7.70;82.20;;;;;;4949683;28;20223;-73
2024/01/04 08:11:47;;;;;;;3.83;1.00;;;7.70;82.20;;;;;;4945254;28;20456;-73
2024/01/04 08:14:12;;;;;;;1.70;1.10;;;7.80;82.20;;;;;;4947411;28;20184;-73
2024/01/04 08:16:38;;;;;;;3.33;1.10;;;7.70;82.20;;;;;;4953224;28;20481;-71
2024/01/04 08:19:04;;;;;;;1.50;1.10;;;7.70;81.90;;;;;;4953776;28;20187;-72
2024/01/04 08:21:30;;;;;;;1.57;0.73;;;7.70;81.90;;;;;;4948240;28;20470;-72
2024/01/04 08:23:56;;;;;;;4.57;1.20;;;7.70;81.90;;;;;;4942578;28;21412;-71
2024/01/04 08:26:22;;;;;;;3.70;1.20;;;7.70;82.10;;;;;;4953574;28;20236;-73
2024/01/04 08:28:47;;;;;;;3.77;2.13;;;7.70;81.90;;;;;;4953051;28;20195;-72
2024/01/04 08:31:13;;;;;;;8.03;1.10;;;7.80;81.90;;;;;;4945821;28;20955;-71
2024/01/04 08:33:38;;;;;;;5.37;1.90;;;7.80;81.50;;;;;;4947608;28;20184;-71
2024/01/04 08:36:04;;;;;;;4.07;1.40;;;7.80;81.50;;;;;;4950310;28;20184;-73
2024/01/04 08:38:30;;;;;;;3.80;1.40;;;7.80;81.40;;;;;;4947272;28;20679;-71
2024/01/04 08:40:56;;;;;;;4.03;1.27;;;7.90;81.10;;;;;;4943536;28;20216;-71
2024/01/04 08:43:22;;;;;;;6.17;1.07;;;7.90;80.20;;;;;;4945742;28;20481;-70
2024/01/04 08:45:49;;;;;;;2.00;1.10;;;7.90;79.70;;;;;;4946279;28;20992;-72
2024/01/04 08:48:15;;;;;;;8.03;1.43;;;8.00;79.60;;;;;;4945794;28;20188;-71
2024/01/04 08:50:41;;;;;;;5.57;2.17;;;8.00;79.30;;;;;;4943856;28;20471;-72
2024/01/04 08:53:06;;;;;;;2.07;1.23;;;8.00;79.20;;;;;;4950724;28;20184;-70
2024/01/04 08:55:32;;;;;;;2.73;1.27;;;8.10;78.90;;;;;;4954792;28;20274;-74
2024/01/04 08:57:59;;;;;;;7.03;1.70;;;8.20;78.60;;;;;;4980136;28;20207;-73
2024/01/04 09:00:24;;;;;;;6.07;1.43;;;8.30;78.40;;;;;;4954062;28;20483;-71
2024/01/04 09:02:50;;;;;;;7.07;1.27;;;8.40;77.70;;;;;;4953388;28;20509;-72
2024/01/04 09:05:15;;;;;;;3.27;1.00;;;8.50;77.40;;;;;;4949778;28;20200;-73
2024/01/04 09:07:41;;;;;;;1.53;0.73;;;8.60;77.30;;;;;;4951696;28;20188;-72
2024/01/04 09:10:08;;;;;;;3.67;1.30;;;8.60;76.80;;;;;;4967677;28;20215;-71
2024/01/04 09:12:33;;;;;;;3.20;1.30;;;8.60;76.70;;;;;;4951504;28;20274;-72
2024/01/04 09:14:59;;;;;;;3.40;0.70;;;8.70;76.70;;;;;;4950920;28;20522;-71
2024/01/04 09:17:25;;;;;;;1.47;0.87;;;8.70;76.40;;;;;;4950175;28;20664;-70
2024/01/04 09:19:51;;;;;;;5.30;1.10;;;8.70;76.50;;;;;;4947160;28;20203;-71
2024/01/04 09:22:17;;;;;;;3.60;1.10;;;8.70;76.10;;;;;;4943244;28;20424;-73
2024/01/04 09:24:43;;;;;;;2.30;0.77;;;8.70;75.90;;;;;;4948064;28;20459;-71
2024/01/04 09:27:08;;;;;;;8.10;1.33;;;8.70;75.90;;;;;;4950433;28;20479;-72
2024/01/04 09:29:34;;;;;;;2.60;0.73;;;8.70;75.40;;;;;;4948887;28;20226;-70
2024/01/04 09:32:03;;;;;;;2.23;0.80;;;8.60;75.20;;;;;;4943190;28;20192;-72
2024/01/04 09:34:29;;;;;;;2.23;1.07;;;8.60;75.70;;;;;;4940078;28;20271;-73
2024/01/04 09:36:54;;;;;;;4.00;2.23;;;8.60;75.50;;;;;;4956857;28;21156;-72
2024/01/04 09:39:20;;;;;;;7.37;0.90;;;8.60;75.20;;;;;;4947965;28;20184;-73
2024/01/04 09:41:48;;;;;;;4.70;1.20;;;8.60;75.50;;;;;;4947500;28;20262;-73
2024/01/04 09:44:14;;;;;;;4.77;1.13;;;8.70;75.20;;;;;;4947607;28;20424;-72
2024/01/04 09:46:41;;;;;;;7.40;1.20;;;8.80;75.20;;;;;;4946960;28;20471;-72
2024/01/04 09:49:09;;;;;;;2.90;1.00;;;8.90;74.80;;;;;;4945113;28;20880;-72
2024/01/04 09:51:38;;;;;;;3.20;1.40;;;9.00;74.30;;;;;;4941539;28;20503;-72
2024/01/04 09:54:07;;;;;;;5.23;2.37;;;9.00;74.30;;;;;;4949225;28;20433;-71
2024/01/04 09:56:38;;;;;;;2.70;1.60;;;9.10;73.70;;;;;;4949339;28;20450;-72
2024/01/04 09:59:04;;;;;;;3.00;1.40;;;9.20;73.60;;;;;;4953370;28;20550;-73
2024/01/04 10:01:34;;;;;;;3.40;1.20;;;9.30;73.30;;;;;;4945167;28;20483;-73
2024/01/04 10:04:08;;;;;;;3.60;1.50;;;9.40;72.30;;;;;;4950972;28;20567;-72
2024/01/04 10:06:36;;;;;;;3.80;1.77;;;9.40;72.40;;;;;;4950990;28;20606;-71
2024/01/04 10:09:19;;;;;;;2.50;1.57;;;9.50;72.10;;;;;;4952685;28;20518;-71
2024/01/04 10:12:05;;;;;;;3.90;1.40;;;9.60;72.40;;;;;;4945070;28;20468;-72
2024/01/04 10:14:31;;;;;;;2.23;1.10;;;9.60;71.60;;;;;;4950972;28;20439;-72
2024/01/04 10:16:57;;;;;;;7.67;1.67;;;9.70;71.40;;;;;;4947236;28;20541;-72
2024/01/04 10:19:23;;;;;;;3.67;1.07;;;9.70;71.70;;;;;;4951424;28;20494;-71
2024/01/04 10:21:50;;;;;;;2.73;1.10;;;9.70;71.30;;;;;;4947202;28;20223;-73
2024/01/04 10:24:23;;;;;;;4.90;1.30;;;9.70;71.10;;;;;;4949684;28;20451;-72
2024/01/04 10:26:59;;;;;;;5.03;1.33;;;9.70;71.30;;;;;;4948643;28;20474;-71
2024/01/04 10:29:26;;;;;;;9.03;1.83;;;9.60;71.70;;;;;;4947786;28;20430;-72
2024/01/04 10:31:59;;;;;;;6.13;1.53;;;9.40;73.50;;;;;;4952527;28;20478;-71
2024/01/04 10:34:25;;;;;;;5.30;1.30;;;9.00;76.40;;;;;;4947041;28;20424;-73
2024/01/04 10:36:52;;;;;;;3.03;1.20;;;8.60;78.00;;;;;;4958080;28;20435;-69
2024/01/04 10:39:20;;;;;;;4.60;1.10;;;8.50;78.60;;;;;;4960069;28;20473;-70
2024/01/04 10:42:01;;;;;;;3.00;1.50;;;8.50;79.20;;;;;;4942132;28;20467;-70
2024/01/04 10:44:27;;;;;;;6.67;1.60;;;8.50;79.50;;;;;;4945479;28;20431;-71
2024/01/04 10:46:57;;;;;;;3.77;1.07;;;8.50;79.50;;;;;;4950999;28;21133;-72
2024/01/04 10:49:24;;;;;;;8.33;1.63;;;8.50;79.50;;;;;;4943816;28;20203;-72
2024/01/04 10:51:57;;;;;;;5.57;1.10;;;8.50;80.20;;;;;;4943929;28;20455;-72
2024/01/04 10:54:32;;;;;;;4.17;1.27;;;8.50;80.80;;;;;;4947592;28;20498;-73
2024/01/04 10:56:59;;;;;;;3.40;1.03;;;8.40;79.90;;;;;;4949728;28;20432;-73
2024/01/04 10:59:27;;;;;;;3.00;0.93;;;8.40;80.30;;;;;;4949579;28;20428;-72
2024/01/04 11:01:53;;;;;;;3.47;0.90;;;8.30;79.00;;;;;;4944853;28;20466;-71
2024/01/04 11:04:21;;;;;;;5.10;1.03;;;8.20;79.50;;;;;;4944036;28;20516;-71
2024/01/04 11:06:48;;;;;;;1.37;0.80;;;8.30;79.50;;;;;;4951075;28;20507;-72
2024/01/04 11:09:14;;;;;;;2.20;0.90;;;8.40;79.30;;;;;;4947349;28;20423;-72
2024/01/04 11:11:40;;;;;;;2.90;1.03;;;8.50;79.00;;;;;;4950164;28;20941;-72
2024/01/04 11:14:06;;;;;;;5.37;1.00;;;8.60;78.40;;;;;;4948223;28;20446;-71
2024/01/04 11:16:42;;;;;;;2.40;0.83;;;8.80;78.10;;;;;;4950793;28;20949;-72
2024/01/04 11:19:22;;;;;;;1.83;1.03;;;8.70;77.00;;;;;;4944117;28;20455;-71
2024/01/04 11:22:06;;;;;;;3.33;1.13;;;8.60;78.30;;;;;;4947261;28;20550;-71
2024/01/04 11:24:44;;;;;;;5.77;1.30;;;8.70;79.30;;;;;;4946133;28;20428;-72
2024/01/04 11:27:17;;;;;;;2.63;1.00;;;8.70;79.60;;;;;;4947712;28;20471;-72
2024/01/04 11:29:43;;;;;;;6.57;1.17;;;8.70;79.90;;;;;;4948571;28;20951;-69
2024/01/04 11:32:10;;;;;;;4.20;1.30;;;8.80;80.00;;;;;;4951464;28;20435;-72
2024/01/04 11:34:38;;;;;;;4.70;1.23;;;8.90;78.70;;;;;;4950059;28;20451;-73
2024/01/04 11:37:16;;;;;;;11.67;1.17;;;9.00;78.70;;;;;;4945783;28;21008;-73
2024/01/04 11:39:54;;;;;;;2.60;1.20;;;9.10;77.60;;;;;;4945540;28;20463;-71
2024/01/04 11:42:20;;;;;;;2.40;1.20;;;9.20;77.10;;;;;;4952189;28;20427;-70
2024/01/04 11:44:50;;;;;;;1.90;1.13;;;9.20;77.10;;;;;;4951602;28;20507;-73
2024/01/04 11:47:15;;;;;;;3.67;1.60;;;9.30;76.80;;;;;;4947502;28;20245;-72
2024/01/04 11:49:47;;;;;;;5.00;1.30;;;9.30;76.50;;;;;;4944637;28;20459;-71
2024/01/04 11:52:15;;;;;;;4.50;1.57;;;9.30;77.30;;;;;;4949710;28;20275;-73
2024/01/04 11:54:41;;;;;;;4.50;1.53;;;9.10;78.10;;;;;;4942947;28;20471;-72
2024/01/04 11:57:17;;;;;;;1.57;0.87;;;8.90;79.00;;;;;;4953427;28;20448;-71
2024/01/04 11:59:42;;;;;;;11.60;1.37;;;8.80;79.90;;;;;;4949079;28;20444;-71
2024/01/04 12:02:19;;;;;;;3.83;1.00;;;8.60;79.90;;;;;;4954385;28;20435;-71
2024/01/04 12:04:45;;;;;;;2.13;1.33;;;8.50;80.60;;;;;;4951404;28;20184;-71
2024/01/04 12:07:12;;;;;;;2.90;1.23;;;8.50;81.40;;;;;;4950986;28;20517;-69
2024/01/04 12:09:38;;;;;;;1.17;0.73;;;8.40;80.60;;;;;;4945110;28;20219;-71
2024/01/04 12:12:04;;;;;;;7.13;1.30;;;8.40;78.90;;;;;;4946865;28;21025;-72
2024/01/04 12:14:29;;;;;;;2.33;1.13;;;8.40;79.60;;;;;;4951348;28;20991;-72
2024/01/04 12:16:57;;;;;;;2.50;1.10;;;8.30;78.90;;;;;;4952088;28;20554;-71
2024/01/04 12:19:23;;;;;;;8.57;1.87;;;8.40;77.80;;;;;;4945858;28;20184;-71
2024/01/04 12:21:48;;;;;;;4.00;1.50;;;8.50;78.00;;;;;;4944028;28;20462;-71
2024/01/04 12:24:14;;;;;;;3.03;1.20;;;8.60;78.10;;;;;;4951130;28;20180;-71
2024/01/04 12:26:40;;;;;;;3.47;1.17;;;8.60;78.10;;;;;;4951809;28;20216;-71
2024/01/04 12:29:07;;;;;;;3.00;1.10;;;8.70;77.80;;;;;;4951959;28;20436;-72
2024/01/04 12:31:34;;;;;;;4.73;1.20;;;8.80;77.00;;;;;;4947417;28;20221;-72
2024/01/04 12:34:00;;;;;;;8.03;1.37;;;8.80;76.70;;;;;;4954951;28;20454;-71
2024/01/04 12:36:26;;;;;;;6.07;1.40;;;8.90;76.50;;;;;;4951646;28;20983;-71
2024/01/04 12:39:05;;;;;;;4.80;1.20;;;8.90;74.30;;;;;;4951879;28;20176;-72
2024/01/04 12:41:33;;;;;;;2.33;1.00;;;9.00;74.30;;;;;;4951524;28;20508;-72
2024/01/04 12:43:58;;;;;;;3.73;1.27;;;9.10;74.20;;;;;;4951935;28;20447;-70
2024/01/04 12:46:27;;;;;;;2.87;1.50;;;9.20;73.70;;;;;;4950577;28;20463;-71
2024/01/04 12:48:53;;;;;;;5.00;1.50;;;9.40;72.30;;;;;;4952055;28;20507;-72
2024/01/04 12:51:27;;;;;;;3.73;1.30;;;9.60;72.30;;;;;;4951991;28;20451;-72
2024/01/04 12:53:53;;;;;;;2.40;1.33;;;9.70;71.30;;;;;;4953611;28;20187;-72